Time;durP1;ratioP1;P1;durP2;ratioP2;P2;SDS_P1;SDS_P2;PMS_P1;PMS_P2;Temp;Humidity;BMP_temperature;BMP_pressure;BME280_temperature;BME280_humidity;BME280_pressure;Samples;Min_cycle;Max_cycle;Signal;HPM_P1;HPM_P2
2020/12/07 00:00:48;;;;;;;43.58;25.40;;;5.30;99.90;;;;;;5037956;28;20403;-75
2020/12/07 00:03:14;;;;;;;40.00;24.33;;;5.30;99.90;;;;;;5035789;28;20586;-75
2020/12/07 00:05:40;;;;;;;39.53;23.13;;;5.30;99.90;;;;;;5055536;28;20266;-76
2020/12/07 00:08:06;;;;;;;39.28;23.95;;;5.30;99.90;;;;;;5021502;28;20462;-75
2020/12/07 00:10:33;;;;;;;40.85;23.67;;;5.30;99.90;;;;;;5038136;28;20913;-76
2020/12/07 00:13:01;;;;;;;37.92;21.30;;;5.30;99.90;;;;;;5034435;28;20653;-76
2020/12/07 00:15:27;;;;;;;41.38;23.40;;;5.30;99.90;;;;;;5018225;28;20205;-76
2020/12/07 00:17:54;;;;;;;37.42;23.00;;;5.20;99.90;;;;;;5001545;28;20219;-76
2020/12/07 00:20:20;;;;;;;35.97;22.98;;;5.30;99.90;;;;;;5035771;28;20665;-76
2020/12/07 00:22:45;;;;;;;39.10;24.47;;;5.30;99.90;;;;;;5017842;28;20174;-74
2020/12/07 00:25:12;;;;;;;38.77;24.10;;;5.30;99.90;;;;;;5035637;28;20787;-75
2020/12/07 00:27:38;;;;;;;36.20;23.17;;;5.20;99.90;;;;;;5017785;28;20404;-75
2020/12/07 00:30:06;;;;;;;36.65;23.30;;;5.20;99.90;;;;;;5001688;28;20173;-75
2020/12/07 00:32:34;;;;;;;39.25;25.05;;;5.20;99.90;;;;;;4985371;28;20553;-76
2020/12/07 00:35:00;;;;;;;33.35;21.40;;;5.30;99.90;;;;;;5017808;28;20625;-75
2020/12/07 00:37:26;;;;;;;39.30;24.17;;;5.40;99.90;;;;;;5034322;28;20161;-75
2020/12/07 00:39:52;;;;;;;36.13;23.20;;;5.30;99.90;;;;;;5001118;28;20342;-76
2020/12/07 00:42:19;;;;;;;32.22;20.77;;;5.60;99.90;;;;;;5017756;28;20912;-76
2020/12/07 00:44:45;;;;;;;34.15;22.00;;;5.30;99.90;;;;;;5035182;28;20213;-76
2020/12/07 00:47:15;;;;;;;33.60;21.95;;;5.30;99.90;;;;;;5017617;28;20165;-76
2020/12/07 00:49:41;;;;;;;31.35;21.38;;;5.20;99.90;;;;;;5017536;28;20180;-76
2020/12/07 00:52:07;;;;;;;35.65;22.40;;;5.20;99.90;;;;;;5017381;28;20169;-76
2020/12/07 00:54:35;;;;;;;36.88;23.58;;;5.30;99.90;;;;;;4984531;28;20216;-76
2020/12/07 00:57:01;;;;;;;31.42;21.02;;;5.20;99.90;;;;;;5000200;28;20174;-76
2020/12/07 00:59:32;;;;;;;34.17;22.98;;;5.20;99.90;;;;;;5016976;28;20289;-76
2020/12/07 01:02:01;;;;;;;37.50;22.92;;;5.20;99.90;;;;;;5017140;28;20173;-76
2020/12/07 01:04:27;;;;;;;35.05;22.20;;;5.30;99.90;;;;;;5000686;28;20272;-76
2020/12/07 01:06:58;;;;;;;35.55;22.90;;;5.10;99.90;;;;;;5016828;28;20168;-76
2020/12/07 01:09:26;;;;;;;36.00;22.75;;;5.20;99.90;;;;;;4980899;28;20695;-75
2020/12/07 01:11:58;;;;;;;34.50;23.10;;;5.10;99.90;;;;;;5013521;28;20265;-76
2020/12/07 01:14:27;;;;;;;38.15;25.52;;;5.00;99.90;;;;;;5013626;28;20346;-76
2020/12/07 01:16:58;;;;;;;34.20;23.25;;;5.10;99.90;;;;;;5013646;28;20179;-76
2020/12/07 01:19:29;;;;;;;34.85;23.20;;;5.00;99.90;;;;;;5013657;28;20201;-76
2020/12/07 01:21:55;;;;;;;39.67;25.08;;;5.00;99.90;;;;;;5013578;28;20166;-76
2020/12/07 01:24:24;;;;;;;38.25;23.98;;;5.00;99.90;;;;;;5013317;28;20288;-75
2020/12/07 01:26:53;;;;;;;34.85;23.55;;;5.10;99.90;;;;;;4997442;28;20647;-76
2020/12/07 01:29:26;;;;;;;30.85;22.23;;;5.10;99.90;;;;;;5013498;28;20166;-75
2020/12/07 01:31:52;;;;;;;31.90;22.13;;;5.10;99.90;;;;;;4996818;28;20232;-75
2020/12/07 01:34:18;;;;;;;35.90;22.58;;;5.10;99.90;;;;;;5014260;28;20276;-76
2020/12/07 01:36:45;;;;;;;33.58;22.00;;;5.00;99.90;;;;;;4996923;28;20211;-76
2020/12/07 01:39:13;;;;;;;31.70;22.10;;;5.00;99.90;;;;;;4996715;28;20206;-76
2020/12/07 01:41:39;;;;;;;32.42;22.92;;;5.00;99.90;;;;;;5013021;28;20190;-76
2020/12/07 01:44:06;;;;;;;31.88;22.92;;;5.00;99.90;;;;;;5012956;28;20170;-76
2020/12/07 01:46:35;;;;;;;33.58;22.08;;;5.00;99.90;;;;;;4996898;28;20204;-76
2020/12/07 01:49:05;;;;;;;32.95;22.85;;;5.00;99.90;;;;;;5012948;28;20223;-76
2020/12/07 01:51:39;;;;;;;34.83;22.50;;;5.00;99.90;;;;;;5012880;28;20174;-76
2020/12/07 01:54:09;;;;;;;31.20;20.98;;;5.10;99.90;;;;;;5014271;28;20277;-76
2020/12/07 01:56:39;;;;;;;33.80;21.95;;;5.00;99.90;;;;;;5013158;28;20174;-75
2020/12/07 01:59:15;;;;;;;32.42;21.65;;;5.00;99.90;;;;;;5012675;28;20202;-76
2020/12/07 02:01:44;;;;;;;35.58;22.55;;;4.90;99.90;;;;;;5012694;28;20224;-76
2020/12/07 02:04:13;;;;;;;33.58;22.40;;;4.90;99.90;;;;;;5012583;28;20162;-76
2020/12/07 02:06:46;;;;;;;31.88;21.50;;;4.90;99.90;;;;;;5014073;28;20216;-76
2020/12/07 02:09:12;;;;;;;33.55;22.88;;;5.10;99.90;;;;;;5012490;28;20269;-76
2020/12/07 02:11:53;;;;;;;29.70;21.58;;;5.00;99.90;;;;;;4998041;28;20515;-76
2020/12/07 02:14:20;;;;;;;34.90;23.90;;;4.90;99.90;;;;;;5012415;28;20216;-75
2020/12/07 02:16:46;;;;;;;33.30;22.90;;;4.90;99.90;;;;;;5013702;28;20177;-76
2020/12/07 02:19:14;;;;;;;36.75;23.73;;;4.80;99.90;;;;;;4996668;28;20575;-75
2020/12/07 02:21:48;;;;;;;36.03;23.73;;;4.90;99.90;;;;;;4997257;28;20216;-76
2020/12/07 02:24:23;;;;;;;32.63;22.55;;;4.80;99.90;;;;;;5012733;28;20292;-76
2020/12/07 02:26:58;;;;;;;34.78;23.67;;;4.80;99.90;;;;;;4997539;28;20219;-76
2020/12/07 02:29:29;;;;;;;35.30;23.00;;;4.80;99.90;;;;;;5012319;28;20168;-76
2020/12/07 02:32:12;;;;;;;31.65;21.77;;;4.80;99.90;;;;;;5012580;28;20181;-75
2020/12/07 02:34:41;;;;;;;31.83;21.95;;;4.90;99.90;;;;;;5012270;28;20288;-76
2020/12/07 02:37:10;;;;;;;35.92;24.00;;;4.90;99.90;;;;;;5028907;28;20174;-76
2020/12/07 02:39:37;;;;;;;28.92;20.52;;;4.80;99.90;;;;;;5012102;28;20197;-76
2020/12/07 02:42:05;;;;;;;36.25;24.08;;;4.80;99.90;;;;;;4996281;28;20170;-75
2020/12/07 02:44:32;;;;;;;38.10;23.50;;;4.90;99.90;;;;;;4995884;28;20205;-75
2020/12/07 02:47:07;;;;;;;35.78;23.98;;;4.80;99.90;;;;;;5013404;28;20173;-76
2020/12/07 02:49:33;;;;;;;36.17;22.33;;;4.80;99.90;;;;;;5012487;28;20550;-76
2020/12/07 02:52:05;;;;;;;36.65;23.42;;;4.80;99.90;;;;;;4996450;28;20174;-77
2020/12/07 02:54:37;;;;;;;37.10;24.27;;;4.80;99.90;;;;;;5012023;28;20205;-76
2020/12/07 02:57:08;;;;;;;35.70;24.45;;;4.80;99.90;;;;;;5012370;28;20580;-75
2020/12/07 02:59:37;;;;;;;36.25;24.13;;;4.90;99.90;;;;;;4995705;28;20264;-75
2020/12/07 03:02:08;;;;;;;37.08;23.40;;;4.90;99.90;;;;;;5012034;28;20170;-76
2020/12/07 03:04:34;;;;;;;38.15;23.75;;;4.80;99.90;;;;;;4995698;28;20200;-75
2020/12/07 03:07:04;;;;;;;36.95;24.30;;;4.80;99.90;;;;;;5012270;28;20166;-75
2020/12/07 03:09:36;;;;;;;39.40;23.75;;;4.80;99.90;;;;;;4995624;28;20221;-75
2020/12/07 03:12:03;;;;;;;38.63;25.50;;;4.80;99.90;;;;;;4995564;28;20252;-76
2020/12/07 03:14:31;;;;;;;35.45;23.23;;;4.80;99.90;;;;;;5012219;28;20280;-75
2020/12/07 03:16:57;;;;;;;40.17;25.55;;;4.80;99.90;;;;;;4995748;28;20182;-75
2020/12/07 03:19:23;;;;;;;36.83;24.33;;;4.80;99.90;;;;;;5013154;28;20244;-75
2020/12/07 03:21:55;;;;;;;36.65;25.27;;;4.80;99.90;;;;;;5015628;28;20162;-75
2020/12/07 03:24:25;;;;;;;37.90;24.85;;;4.80;99.90;;;;;;5015506;28;20202;-75
2020/12/07 03:26:53;;;;;;;40.03;24.38;;;4.80;99.90;;;;;;5015840;28;20541;-75
2020/12/07 03:29:25;;;;;;;41.35;25.60;;;4.90;99.90;;;;;;4999501;28;20229;-75
2020/12/07 03:31:52;;;;;;;41.40;27.55;;;4.90;99.90;;;;;;5015774;28;20170;-75
2020/12/07 03:34:22;;;;;;;39.33;25.17;;;4.80;99.90;;;;;;4983474;28;20224;-76
2020/12/07 03:36:49;;;;;;;39.45;25.80;;;4.70;99.90;;;;;;5015735;28;20193;-75
2020/12/07 03:39:19;;;;;;;37.75;24.67;;;4.80;99.90;;;;;;4999261;28;20605;-75
2020/12/07 03:41:54;;;;;;;39.42;26.38;;;4.80;99.90;;;;;;5016445;28;20181;-75
2020/12/07 03:44:20;;;;;;;44.53;26.83;;;4.80;99.90;;;;;;4999169;28;20194;-75
2020/12/07 03:46:51;;;;;;;42.50;26.50;;;4.80;99.90;;;;;;5015208;28;20166;-75
2020/12/07 03:49:18;;;;;;;41.88;26.15;;;4.70;99.90;;;;;;4982863;28;20227;-75
2020/12/07 03:51:46;;;;;;;39.13;25.63;;;4.80;99.90;;;;;;5015137;28;20228;-75
2020/12/07 03:54:13;;;;;;;39.58;26.75;;;4.70;99.90;;;;;;5015336;28;20743;-76
2020/12/07 03:56:40;;;;;;;41.20;27.25;;;4.90;99.90;;;;;;5015034;28;20174;-76
2020/12/07 03:59:07;;;;;;;39.88;27.27;;;4.80;99.90;;;;;;5014900;28;20282;-76
2020/12/07 04:01:33;;;;;;;36.97;26.80;;;4.80;99.90;;;;;;4998865;28;20209;-75
2020/12/07 04:04:03;;;;;;;44.92;29.52;;;4.70;99.90;;;;;;5014836;28;20170;-76
2020/12/07 04:06:39;;;;;;;44.28;29.90;;;4.70;99.90;;;;;;5015176;28;20197;-76
2020/12/07 04:09:09;;;;;;;47.95;30.98;;;4.70;99.90;;;;;;5023527;28;20220;-76
2020/12/07 04:11:37;;;;;;;43.00;28.40;;;4.70;99.90;;;;;;5034756;28;20196;-76
2020/12/07 04:14:03;;;;;;;50.60;29.57;;;4.70;99.90;;;;;;5034694;28;20260;-76
2020/12/07 04:16:29;;;;;;;49.17;31.85;;;4.70;99.90;;;;;;5034436;28;20408;-76
2020/12/07 04:18:55;;;;;;;51.47;33.50;;;4.60;99.90;;;;;;5018112;28;20674;-76
2020/12/07 04:21:21;;;;;;;47.25;30.45;;;4.60;99.90;;;;;;5034681;28;20247;-75
2020/12/07 04:23:47;;;;;;;52.47;31.30;;;4.60;99.90;;;;;;5035764;28;20170;-75
2020/12/07 04:26:16;;;;;;;56.70;34.50;;;4.60;99.90;;;;;;5002137;28;20440;-76
2020/12/07 04:28:45;;;;;;;64.00;35.78;;;4.60;99.90;;;;;;5034196;28;20177;-76
2020/12/07 04:31:11;;;;;;;57.88;35.40;;;4.90;99.90;;;;;;5032991;28;20169;-76
2020/12/07 04:33:37;;;;;;;52.30;33.60;;;4.60;99.90;;;;;;5034046;28;20185;-76
2020/12/07 04:36:04;;;;;;;58.33;38.15;;;4.60;99.90;;;;;;5035159;28;20451;-76
2020/12/07 04:38:32;;;;;;;56.83;35.67;;;4.50;99.90;;;;;;5033906;28;20205;-76
2020/12/07 04:41:02;;;;;;;61.13;36.03;;;4.40;99.90;;;;;;5033969;28;20220;-76
2020/12/07 04:43:32;;;;;;;65.38;35.20;;;4.50;99.90;;;;;;5035046;28;20203;-75
2020/12/07 04:45:58;;;;;;;67.45;44.63;;;4.60;99.90;;;;;;5016366;28;20435;-75
2020/12/07 04:48:27;;;;;;;61.77;39.13;;;4.50;99.90;;;;;;5033789;28;20184;-75
2020/12/07 04:50:54;;;;;;;58.45;37.50;;;4.70;99.90;;;;;;5035261;28;20412;-76
2020/12/07 04:53:25;;;;;;;62.28;36.30;;;4.60;99.90;;;;;;5017568;28;20172;-75
2020/12/07 04:55:51;;;;;;;58.22;36.25;;;4.60;99.90;;;;;;5017432;28;20578;-76
2020/12/07 04:58:19;;;;;;;63.38;36.95;;;4.60;99.90;;;;;;5017908;28;20208;-75
2020/12/07 05:00:49;;;;;;;60.65;37.67;;;4.60;99.90;;;;;;5017071;28;20169;-75
2020/12/07 05:03:17;;;;;;;56.00;34.88;;;4.60;99.90;;;;;;5033063;28;20208;-76
2020/12/07 05:05:44;;;;;;;62.72;35.80;;;4.70;99.90;;;;;;5033659;28;20212;-76
2020/12/07 05:08:11;;;;;;;58.60;37.22;;;4.60;99.90;;;;;;5033570;28;20662;-75
2020/12/07 05:10:42;;;;;;;56.47;35.95;;;4.50;99.90;;;;;;5000869;28;20193;-76
2020/12/07 05:13:54;;;;;;;60.22;35.10;;;4.60;99.90;;;;;;5034809;28;20220;-75
2020/12/07 05:16:00;;;;;;;59.13;35.80;;;4.60;99.90;;;;;;5028810;28;20698;-76
2020/12/07 05:18:26;;;;;;;58.58;35.03;;;4.50;99.90;;;;;;5016807;28;20205;-75
2020/12/07 05:20:53;;;;;;;64.55;37.33;;;4.50;99.90;;;;;;5016742;28;20173;-75
2020/12/07 05:23:18;;;;;;;59.58;34.30;;;4.50;99.90;;;;;;5034351;28;20173;-75
2020/12/07 05:25:47;;;;;;;57.40;35.63;;;4.40;99.90;;;;;;5034175;28;20201;-76
2020/12/07 05:28:22;;;;;;;55.08;36.33;;;4.40;99.90;;;;;;5033380;28;20416;-75
2020/12/07 05:30:50;;;;;;;53.50;35.47;;;4.50;99.90;;;;;;5016599;28;20185;-75
2020/12/07 05:33:18;;;;;;;64.50;39.55;;;4.40;99.90;;;;;;5016773;28;20239;-73
2020/12/07 05:35:53;;;;;;;65.35;39.00;;;4.50;99.90;;;;;;5016524;28;20247;-74
2020/12/07 05:38:20;;;;;;;62.53;36.90;;;4.50;99.90;;;;;;5032821;28;20201;-75
2020/12/07 05:40:50;;;;;;;63.70;38.95;;;4.50;99.90;;;;;;5032965;28;20173;-74
2020/12/07 05:43:21;;;;;;;59.38;36.50;;;4.50;99.90;;;;;;5032781;28;20166;-74
2020/12/07 05:45:51;;;;;;;60.03;36.58;;;4.50;99.90;;;;;;5032964;28;20588;-74
2020/12/07 05:48:23;;;;;;;59.28;35.47;;;4.40;99.90;;;;;;5032943;28;20264;-73
2020/12/07 05:50:51;;;;;;;58.33;37.92;;;4.50;99.90;;;;;;5032652;28;20178;-73
2020/12/07 05:53:17;;;;;;;63.70;36.97;;;4.70;99.90;;;;;;5032776;28;20169;-75
2020/12/07 05:55:43;;;;;;;60.07;37.20;;;4.40;99.90;;;;;;5033896;28;20235;-74
2020/12/07 05:58:12;;;;;;;61.55;36.10;;;4.40;99.90;;;;;;5016121;28;20823;-74
2020/12/07 06:00:38;;;;;;;59.83;37.65;;;4.40;99.90;;;;;;5016337;28;20247;-73
2020/12/07 06:03:07;;;;;;;66.72;36.50;;;4.60;99.90;;;;;;5016220;28;20623;-74
2020/12/07 06:05:33;;;;;;;58.05;36.47;;;4.40;99.90;;;;;;5033828;28;20204;-74
2020/12/07 06:08:12;;;;;;;61.20;38.08;;;4.50;99.90;;;;;;5032068;28;20170;-75
2020/12/07 06:10:54;;;;;;;59.97;37.58;;;4.50;99.90;;;;;;5033797;28;20181;-74
2020/12/07 06:13:23;;;;;;;60.22;36.17;;;4.50;99.90;;;;;;5015885;28;20252;-74
2020/12/07 06:15:52;;;;;;;57.92;37.55;;;4.50;99.90;;;;;;5033324;28;20300;-74
2020/12/07 06:18:34;;;;;;;60.40;37.20;;;4.50;99.90;;;;;;5032026;28;20193;-74
2020/12/07 06:21:10;;;;;;;58.75;36.38;;;4.50;99.90;;;;;;5032194;28;20174;-74
2020/12/07 06:23:41;;;;;;;58.53;36.33;;;4.40;99.90;;;;;;5015917;28;20192;-74
2020/12/07 06:26:11;;;;;;;58.30;35.13;;;4.40;99.90;;;;;;5032956;28;20201;-74
2020/12/07 06:28:39;;;;;;;62.30;37.05;;;4.50;99.90;;;;;;5032076;28;20268;-74
2020/12/07 06:31:08;;;;;;;62.65;37.95;;;4.40;99.90;;;;;;5032029;28;20260;-74
2020/12/07 06:33:46;;;;;;;62.53;37.90;;;4.50;99.90;;;;;;5015924;28;20531;-74
2020/12/07 06:36:26;;;;;;;66.05;38.08;;;4.40;99.90;;;;;;5033109;28;20284;-74
2020/12/07 06:39:01;;;;;;;57.97;37.55;;;4.40;99.90;;;;;;5015445;28;20201;-77
2020/12/07 06:41:36;;;;;;;60.25;37.10;;;4.50;99.90;;;;;;5032123;28;20639;-74
2020/12/07 06:44:11;;;;;;;60.33;36.97;;;4.40;99.90;;;;;;5032155;28;20650;-74
2020/12/07 06:47:02;;;;;;;61.63;37.17;;;4.40;99.90;;;;;;5032272;28;20539;-73
2020/12/07 06:49:33;;;;;;;70.75;39.17;;;4.40;99.90;;;;;;5015783;28;20165;-73
2020/12/07 06:52:09;;;;;;;62.85;37.55;;;4.50;99.90;;;;;;5015554;28;20189;-74
2020/12/07 06:57:38;;;;;;;69.18;36.85;;;4.40;99.90;;;;;;5036180;28;20220;-74
2020/12/07 07:00:14;;;;;;;64.88;36.88;;;4.30;99.90;;;;;;5019278;28;20180;-73
2020/12/07 07:02:45;;;;;;;65.03;37.40;;;4.40;99.90;;;;;;5035809;28;20169;-74
2020/12/07 07:05:18;;;;;;;66.95;38.50;;;4.20;99.90;;;;;;5019244;28;20250;-74
2020/12/07 07:07:45;;;;;;;55.40;34.95;;;4.30;99.90;;;;;;5003130;28;20196;-74
2020/12/07 07:10:14;;;;;;;65.65;36.17;;;4.30;99.90;;;;;;4999324;28;20217;-74
2020/12/07 07:12:45;;;;;;;63.00;35.85;;;4.20;99.90;;;;;;5016801;28;20293;-76
2020/12/07 07:15:12;;;;;;;59.05;34.15;;;4.30;99.90;;;;;;5024419;28;20212;-76
2020/12/07 07:17:43;;;;;;;61.08;35.40;;;4.30;99.90;;;;;;5034961;28;20162;-76
2020/12/07 07:20:11;;;;;;;63.90;34.20;;;4.20;99.90;;;;;;5035410;28;20226;-76
2020/12/07 07:22:42;;;;;;;55.03;33.15;;;4.20;99.90;;;;;;5025604;28;20170;-76
2020/12/07 07:25:25;;;;;;;53.20;30.52;;;4.10;99.90;;;;;;5027615;28;20629;-74
2020/12/07 07:27:58;;;;;;;55.90;32.30;;;4.20;99.90;;;;;;5035408;28;20531;-74
2020/12/07 07:30:25;;;;;;;52.55;29.92;;;4.20;99.90;;;;;;5035926;28;20295;-73
2020/12/07 07:32:52;;;;;;;49.92;30.13;;;4.10;99.90;;;;;;5036449;28;20218;-73
2020/12/07 07:35:21;;;;;;;50.25;29.70;;;4.20;99.90;;;;;;5036431;28;20266;-74
2020/12/07 07:37:49;;;;;;;54.05;32.42;;;4.20;99.90;;;;;;5035020;28;20644;-74
2020/12/07 07:40:18;;;;;;;55.27;31.80;;;4.20;99.90;;;;;;5035130;28;20197;-74
2020/12/07 07:42:51;;;;;;;47.30;29.75;;;4.10;99.90;;;;;;5034604;28;20412;-73
2020/12/07 07:45:19;;;;;;;57.05;31.42;;;4.20;99.90;;;;;;5002186;28;20201;-73
2020/12/07 08:02:13;;;;;;;40.13;25.75;;;4.20;99.90;;;;;;5013885;28;20177;-74
2020/12/07 08:17:59;;;;;;;46.53;25.60;;;4.20;99.90;;;;;;5054895;28;20173;-73
2020/12/07 08:20:36;;;;;;;43.28;27.08;;;4.30;99.90;;;;;;5036618;28;20168;-73
2020/12/07 08:23:06;;;;;;;45.67;27.38;;;4.30;99.90;;;;;;5054696;28;20592;-74
2020/12/07 08:25:40;;;;;;;50.13;27.98;;;4.30;99.90;;;;;;5016684;28;20230;-75
2020/12/07 08:28:26;;;;;;;44.67;27.33;;;4.30;99.90;;;;;;5016998;28;20243;-73
2020/12/07 08:31:08;;;;;;;48.53;28.90;;;4.30;99.90;;;;;;5016536;28;20238;-74
2020/12/07 08:33:58;;;;;;;42.60;25.42;;;4.40;99.90;;;;;;5019801;28;20283;-75
2020/12/07 08:36:27;;;;;;;47.63;27.20;;;4.30;99.90;;;;;;5047276;28;20176;-74
2020/12/07 08:38:54;;;;;;;43.35;25.25;;;4.30;99.90;;;;;;5053373;28;20643;-76
2020/12/07 08:41:28;;;;;;;46.50;29.40;;;4.30;99.90;;;;;;5037000;28;20217;-75
2020/12/07 08:44:07;;;;;;;47.72;27.40;;;4.30;99.90;;;;;;5027252;28;20267;-74
2020/12/07 08:46:38;;;;;;;50.95;27.67;;;4.30;99.90;;;;;;5046132;28;20291;-74
2020/12/07 08:49:07;;;;;;;47.88;26.40;;;4.40;99.90;;;;;;5038362;28;20197;-75
2020/12/07 08:51:37;;;;;;;46.30;27.60;;;4.40;99.90;;;;;;5019927;28;20205;-75
2020/12/07 08:54:04;;;;;;;42.95;26.80;;;4.40;99.90;;;;;;5025081;28;20588;-74
2020/12/07 08:56:32;;;;;;;38.20;24.50;;;4.40;99.90;;;;;;5031927;28;20282;-74
2020/12/07 08:58:59;;;;;;;44.63;27.15;;;4.50;99.90;;;;;;5034205;28;20200;-74
2020/12/07 09:01:25;;;;;;;38.08;25.83;;;4.40;99.90;;;;;;5025617;28;20698;-75
2020/12/07 09:03:51;;;;;;;43.00;27.38;;;4.40;99.90;;;;;;5015900;28;20276;-74
2020/12/07 09:06:20;;;;;;;46.20;27.88;;;4.40;99.90;;;;;;5015937;28;20255;-74
2020/12/07 09:08:49;;;;;;;43.85;27.02;;;4.40;99.90;;;;;;5016433;28;20644;-74
2020/12/07 09:11:21;;;;;;;50.20;30.20;;;4.50;99.90;;;;;;5016253;28;20627;-74
2020/12/07 09:13:47;;;;;;;50.40;30.05;;;4.50;99.90;;;;;;5016243;28;20177;-74
2020/12/07 09:16:14;;;;;;;60.80;34.00;;;4.50;99.90;;;;;;5033414;28;20701;-74
2020/12/07 09:18:41;;;;;;;56.40;32.65;;;4.50;99.90;;;;;;5015270;28;20213;-74
2020/12/07 09:21:08;;;;;;;62.80;34.90;;;4.40;99.90;;;;;;5032100;28;20638;-74
2020/12/07 09:23:35;;;;;;;57.70;34.35;;;4.50;99.90;;;;;;5033143;28;20173;-75
2020/12/07 09:26:02;;;;;;;56.90;34.25;;;4.50;99.90;;;;;;5033144;28;20547;-74
2020/12/07 09:28:29;;;;;;;62.65;37.28;;;4.40;99.90;;;;;;4999482;28;20204;-74
2020/12/07 09:30:58;;;;;;;58.60;36.20;;;4.50;99.90;;;;;;5031739;28;20543;-74
2020/12/07 09:33:24;;;;;;;59.08;35.03;;;4.40;99.90;;;;;;5015663;28;20379;-75
2020/12/07 09:35:51;;;;;;;61.72;34.72;;;4.40;99.90;;;;;;5046324;28;20253;-74
2020/12/07 09:38:17;;;;;;;60.60;35.17;;;4.40;99.90;;;;;;5035477;28;20680;-75
2020/12/07 09:40:45;;;;;;;65.20;35.85;;;4.40;99.90;;;;;;5053032;28;20540;-74
2020/12/07 09:43:13;;;;;;;56.67;34.42;;;4.40;99.90;;;;;;5052842;28;20177;-74
2020/12/07 09:45:40;;;;;;;65.32;34.55;;;4.40;99.90;;;;;;5053331;28;20681;-74
2020/12/07 09:48:06;;;;;;;56.92;34.60;;;4.40;99.90;;;;;;5035322;28;20270;-74
2020/12/07 09:50:33;;;;;;;57.70;33.42;;;4.40;99.90;;;;;;5035188;28;20177;-74
2020/12/07 09:53:07;;;;;;;61.95;34.47;;;4.50;99.90;;;;;;5018156;28;20218;-74
2020/12/07 09:55:36;;;;;;;60.47;34.13;;;4.30;99.90;;;;;;5031217;28;20579;-74
2020/12/07 09:58:03;;;;;;;59.40;35.67;;;4.40;99.90;;;;;;5014840;28;20252;-74
2020/12/07 10:00:29;;;;;;;58.15;35.55;;;4.40;99.90;;;;;;5015108;28;20165;-75
2020/12/07 10:02:56;;;;;;;62.00;35.40;;;4.60;99.90;;;;;;5015228;28;20607;-74
2020/12/07 10:05:22;;;;;;;58.03;34.85;;;4.40;99.90;;;;;;5015166;28;20229;-74
2020/12/07 10:07:51;;;;;;;50.85;33.17;;;4.50;99.90;;;;;;5032313;28;20193;-74
2020/12/07 10:10:18;;;;;;;61.05;34.53;;;4.50;99.90;;;;;;5011786;28;20226;-74
2020/12/07 10:12:44;;;;;;;58.83;33.65;;;4.50;99.90;;;;;;5012766;28;20182;-74
2020/12/07 10:15:16;;;;;;;56.38;33.45;;;4.50;99.90;;;;;;5012917;28;20197;-74
2020/12/07 10:17:47;;;;;;;62.00;35.25;;;4.60;99.90;;;;;;5013691;28;20178;-74
2020/12/07 10:20:13;;;;;;;61.38;33.63;;;4.50;99.90;;;;;;5012713;28;20611;-74
2020/12/07 10:22:42;;;;;;;58.20;34.63;;;4.60;99.90;;;;;;5012498;28;20169;-74
2020/12/07 10:25:08;;;;;;;52.83;32.33;;;4.60;99.90;;;;;;5012438;28;20197;-74
2020/12/07 10:27:34;;;;;;;58.50;32.50;;;4.60;99.90;;;;;;5013800;28;20576;-74
2020/12/07 10:30:00;;;;;;;52.83;30.42;;;4.80;99.90;;;;;;5011542;28;20192;-74
2020/12/07 10:32:30;;;;;;;58.95;32.35;;;4.80;99.90;;;;;;5013817;28;20169;-74
2020/12/07 10:34:56;;;;;;;49.83;31.25;;;4.70;99.90;;;;;;4979990;28;20214;-74
2020/12/07 10:37:22;;;;;;;54.30;31.25;;;4.70;99.90;;;;;;5012591;28;20166;-74
2020/12/07 10:39:49;;;;;;;47.45;30.13;;;4.80;99.90;;;;;;5013349;28;20205;-74
2020/12/07 10:42:18;;;;;;;60.25;32.17;;;4.80;99.90;;;;;;5012545;28;20577;-74
2020/12/07 10:44:44;;;;;;;49.70;29.80;;;4.80;99.90;;;;;;4995992;28;20197;-74
2020/12/07 10:47:10;;;;;;;58.00;32.08;;;4.80;99.90;;;;;;5012163;28;20228;-74
2020/12/07 10:49:36;;;;;;;56.13;30.48;;;4.80;99.90;;;;;;5028560;28;20176;-74
2020/12/07 10:52:02;;;;;;;52.17;29.20;;;4.80;99.90;;;;;;5012118;28;20232;-74
2020/12/07 10:54:31;;;;;;;55.47;30.77;;;5.00;99.90;;;;;;5013239;28;20228;-74
2020/12/07 10:56:59;;;;;;;54.30;28.67;;;4.80;99.90;;;;;;5012383;28;20632;-74
2020/12/07 10:59:26;;;;;;;47.53;29.27;;;4.80;99.90;;;;;;5012096;28;20464;-74
2020/12/07 11:01:53;;;;;;;48.80;28.70;;;4.90;99.90;;;;;;5011590;28;20276;-74
2020/12/07 11:04:19;;;;;;;52.28;28.23;;;5.00;99.90;;;;;;5012311;28;20236;-74
2020/12/07 11:06:50;;;;;;;43.88;25.75;;;5.00;99.90;;;;;;5013248;28;20174;-74
2020/12/07 11:09:23;;;;;;;42.78;25.80;;;5.00;99.90;;;;;;5001652;28;20274;-74
2020/12/07 11:12:00;;;;;;;48.95;24.95;;;5.00;99.90;;;;;;5004128;28;20202;-73
2020/12/07 11:14:29;;;;;;;49.58;25.15;;;4.90;99.90;;;;;;5006397;28;20201;-77
2020/12/07 11:16:58;;;;;;;50.20;26.65;;;5.00;99.90;;;;;;4986141;28;20191;-77
2020/12/07 11:19:26;;;;;;;49.40;25.27;;;4.90;99.90;;;;;;5008895;28;20307;-76
2020/12/07 11:21:52;;;;;;;41.90;25.08;;;4.90;99.90;;;;;;5020074;28;20606;-76
2020/12/07 11:24:18;;;;;;;43.65;25.70;;;4.90;99.90;;;;;;4991822;28;20317;-77
2020/12/07 11:26:46;;;;;;;41.05;23.00;;;5.00;99.90;;;;;;5005906;28;20223;-77
2020/12/07 11:29:14;;;;;;;43.88;23.52;;;5.00;99.90;;;;;;4993416;28;20201;-77
2020/12/07 11:31:45;;;;;;;47.17;24.48;;;5.10;99.90;;;;;;5014936;28;20543;-76
2020/12/07 11:34:19;;;;;;;34.33;22.23;;;5.10;99.90;;;;;;4993302;28;20197;-75
2020/12/07 11:36:51;;;;;;;39.03;23.30;;;5.10;99.90;;;;;;5017852;28;20610;-75
2020/12/07 11:39:42;;;;;;;38.10;23.45;;;5.20;99.90;;;;;;5005529;28;20216;-75
2020/12/07 11:42:23;;;;;;;39.88;22.83;;;5.20;99.90;;;;;;5018358;28;20192;-76
2020/12/07 11:44:49;;;;;;;38.05;21.50;;;5.20;99.90;;;;;;5002570;28;20643;-76
2020/12/07 11:47:18;;;;;;;36.58;21.48;;;5.30;99.90;;;;;;5014683;28;20206;-76
2020/12/07 11:49:47;;;;;;;38.80;21.13;;;5.30;99.90;;;;;;5012093;28;20185;-75
2020/12/07 11:52:13;;;;;;;36.40;21.70;;;5.30;99.90;;;;;;4984517;28;20642;-76
2020/12/07 11:54:39;;;;;;;34.63;21.10;;;5.30;99.90;;;;;;4985895;28;20260;-75
2020/12/07 11:57:06;;;;;;;38.22;22.25;;;5.30;99.90;;;;;;4998794;28;20659;-76
2020/12/07 11:59:35;;;;;;;39.47;20.33;;;5.30;99.90;;;;;;5025611;28;20217;-76
2020/12/07 12:02:03;;;;;;;38.33;22.45;;;5.30;99.90;;;;;;4989548;28;20185;-75
2020/12/07 12:04:29;;;;;;;33.08;20.05;;;5.30;99.90;;;;;;5008777;28;20219;-76
2020/12/07 12:06:58;;;;;;;32.53;21.85;;;5.30;99.90;;;;;;5003548;28;20190;-75
2020/12/07 12:09:26;;;;;;;34.80;20.95;;;5.30;99.90;;;;;;5017801;28;20266;-76
2020/12/07 12:11:53;;;;;;;37.20;21.50;;;5.20;99.90;;;;;;5020762;28;20216;-77
2020/12/07 12:14:19;;;;;;;40.83;23.23;;;5.20;99.90;;;;;;5042114;28;20236;-75
2020/12/07 12:16:50;;;;;;;41.28;23.05;;;5.10;99.90;;;;;;5049092;28;20228;-76
2020/12/07 12:19:17;;;;;;;40.13;21.30;;;5.10;99.90;;;;;;5022785;28;20213;-76
2020/12/07 12:21:43;;;;;;;40.47;22.42;;;5.10;99.90;;;;;;5033938;28;20255;-75
2020/12/07 12:24:10;;;;;;;42.03;21.77;;;5.10;99.90;;;;;;5034591;28;20200;-77
2020/12/07 12:26:40;;;;;;;38.47;22.42;;;5.00;99.90;;;;;;5022587;28;20185;-76
2020/12/07 12:29:09;;;;;;;41.20;22.33;;;5.00;99.90;;;;;;5021138;28;20193;-76
2020/12/07 12:31:40;;;;;;;44.85;25.55;;;5.10;99.90;;;;;;5020010;28;20192;-76
2020/12/07 12:34:08;;;;;;;39.45;22.70;;;5.00;99.90;;;;;;5034036;28;20455;-76
2020/12/07 12:36:34;;;;;;;36.53;21.13;;;4.80;99.90;;;;;;5014114;28;20700;-76
2020/12/07 12:39:00;;;;;;;41.40;23.13;;;4.90;99.90;;;;;;5026654;28;20236;-75
2020/12/07 12:41:26;;;;;;;41.90;24.40;;;5.00;99.90;;;;;;5019362;28;20201;-75
2020/12/07 12:43:53;;;;;;;42.33;24.50;;;5.00;99.90;;;;;;5026113;28;20423;-76
2020/12/07 12:46:19;;;;;;;37.80;22.65;;;5.00;99.90;;;;;;5032945;28;20617;-76
2020/12/07 12:48:52;;;;;;;40.25;23.60;;;5.10;99.90;;;;;;5017545;28;20276;-75
2020/12/07 12:51:18;;;;;;;40.22;22.42;;;5.10;99.90;;;;;;5033395;28;20197;-76
2020/12/07 12:53:44;;;;;;;42.65;21.35;;;5.00;99.90;;;;;;5021816;28;20189;-76
2020/12/07 12:56:11;;;;;;;42.13;22.07;;;5.10;99.90;;;;;;5017798;28;20673;-77
2020/12/07 12:58:41;;;;;;;38.92;22.65;;;5.10;99.90;;;;;;5013012;28;20484;-77
2020/12/07 13:01:09;;;;;;;43.05;22.80;;;5.10;99.90;;;;;;5013437;28;20212;-77
2020/12/07 13:03:37;;;;;;;39.00;23.15;;;5.10;99.90;;;;;;5039649;28;21165;-76
2020/12/07 13:06:06;;;;;;;34.42;21.92;;;5.10;99.90;;;;;;5006129;28;20213;-76
2020/12/07 13:08:32;;;;;;;40.92;21.48;;;5.10;99.90;;;;;;5040253;28;20196;-76
2020/12/07 13:10:58;;;;;;;33.70;20.40;;;5.10;99.90;;;;;;5022356;28;20176;-78
2020/12/07 13:13:36;;;;;;;37.80;20.40;;;5.10;99.90;;;;;;5037329;28;20196;-76
2020/12/07 13:16:11;;;;;;;38.97;19.60;;;5.20;99.90;;;;;;5015626;28;20199;-77